sensor_id;sensor_type;location;lat;lon;timestamp;pressure;altitude;pressure_sealevel;temperature;humidity
23996;BME280;12207;50.076;8.848;2022-07-29T00:02:26;99924.34;;;20.63;55.87
23996;BME280;12207;50.076;8.848;2022-07-29T00:04:53;99925.16;;;20.55;55.86
23996;BME280;12207;50.076;8.848;2022-07-29T00:07:20;99925.97;;;20.51;55.35
23996;BME280;12207;50.076;8.848;2022-07-29T00:09:47;99920.00;;;20.61;54.47
23996;BME280;12207;50.076;8.848;2022-07-29T00:12:13;99914.81;;;20.56;54.93
23996;BME280;12207;50.076;8.848;2022-07-29T00:14:40;99906.22;;;20.62;55.51
23996;BME280;12207;50.076;8.848;2022-07-29T00:17:07;99900.16;;;20.63;54.74
23996;BME280;12207;50.076;8.848;2022-07-29T00:19:33;99905.34;;;20.63;53.85
23996;BME280;12207;50.076;8.848;2022-07-29T00:22:01;99912.25;;;20.64;53.66
23996;BME280;12207;50.076;8.848;2022-07-29T00:24:27;99916.66;;;20.74;52.28
23996;BME280;12207;50.076;8.848;2022-07-29T00:26:54;99914.06;;;20.76;53.55
23996;BME280;12207;50.076;8.848;2022-07-29T00:29:21;99914.94;;;20.81;53.19
23996;BME280;12207;50.076;8.848;2022-07-29T00:31:47;99913.22;;;20.80;52.40
23996;BME280;12207;50.076;8.848;2022-07-29T00:34:14;99914.94;;;20.78;53.58
23996;BME280;12207;50.076;8.848;2022-07-29T00:36:59;99922.75;;;20.79;53.71
23996;BME280;12207;50.076;8.848;2022-07-29T00:39:26;99923.56;;;20.72;53.97
23996;BME280;12207;50.076;8.848;2022-07-29T00:41:53;99928.69;;;20.63;54.57
23996;BME280;12207;50.076;8.848;2022-07-29T00:44:20;99929.56;;;20.62;54.91
23996;BME280;12207;50.076;8.848;2022-07-29T00:46:46;99934.75;;;20.66;53.73
23996;BME280;12207;50.076;8.848;2022-07-29T00:49:13;99943.41;;;20.65;54.11
23996;BME280;12207;50.076;8.848;2022-07-29T00:51:40;99944.13;;;20.47;54.73
23996;BME280;12207;50.076;8.848;2022-07-29T00:54:07;99946.63;;;20.40;55.98
23996;BME280;12207;50.076;8.848;2022-07-29T00:56:34;99945.81;;;20.41;55.08
23996;BME280;12207;50.076;8.848;2022-07-29T00:59:01;99942.41;;;20.49;56.35
23996;BME280;12207;50.076;8.848;2022-07-29T01:01:28;99952.66;;;20.37;56.16
23996;BME280;12207;50.076;8.848;2022-07-29T01:03:55;99949.25;;;20.41;56.53
23996;BME280;12207;50.076;8.848;2022-07-29T01:06:22;99944.94;;;20.45;56.52
23996;BME280;12207;50.076;8.848;2022-07-29T01:08:49;99947.53;;;20.42;56.72
23996;BME280;12207;50.076;8.848;2022-07-29T01:11:17;99945.78;;;20.38;57.52
23996;BME280;12207;50.076;8.848;2022-07-29T01:13:46;99944.88;;;20.37;57.39
23996;BME280;12207;50.076;8.848;2022-07-29T01:16:21;99935.50;;;20.52;56.94
23996;BME280;12207;50.076;8.848;2022-07-29T01:18:56;99943.19;;;20.42;57.03
23996;BME280;12207;50.076;8.848;2022-07-29T01:21:44;99945.72;;;20.32;57.34
23996;BME280;12207;50.076;8.848;2022-07-29T01:27:38;99936.22;;;20.29;57.59
23996;BME280;12207;50.076;8.848;2022-07-29T01:30:08;99925.81;;;20.26;57.66
23996;BME280;12207;50.076;8.848;2022-07-29T01:32:37;99918.88;;;20.20;58.42
23996;BME280;12207;50.076;8.848;2022-07-29T01:35:16;99922.28;;;20.18;58.29
23996;BME280;12207;50.076;8.848;2022-07-29T01:37:57;99920.59;;;20.21;58.37
23996;BME280;12207;50.076;8.848;2022-07-29T01:43:06;99911.84;;;20.07;58.35
23996;BME280;12207;50.076;8.848;2022-07-29T01:45:47;99903.25;;;20.11;58.34
23996;BME280;12207;50.076;8.848;2022-07-29T01:48:24;99911.00;;;20.13;58.42
23996;BME280;12207;50.076;8.848;2022-07-29T01:51:13;99913.59;;;20.13;58.55
23996;BME280;12207;50.076;8.848;2022-07-29T01:54:08;99907.50;;;20.08;58.60
23996;BME280;12207;50.076;8.848;2022-07-29T01:56:38;99907.50;;;20.06;58.59
23996;BME280;12207;50.076;8.848;2022-07-29T01:59:07;99907.50;;;20.08;58.86
23996;BME280;12207;50.076;8.848;2022-07-29T02:01:35;99904.06;;;20.06;59.14
23996;BME280;12207;50.076;8.848;2022-07-29T02:04:03;99908.31;;;19.97;59.12
23996;BME280;12207;50.076;8.848;2022-07-29T02:06:33;99910.03;;;19.98;59.60
23996;BME280;12207;50.076;8.848;2022-07-29T02:09:01;99908.34;;;20.02;59.67
23996;BME280;12207;50.076;8.848;2022-07-29T02:11:31;99902.22;;;19.95;60.27
23996;BME280;12207;50.076;8.848;2022-07-29T02:14:00;99903.91;;;19.89;60.47
23996;BME280;12207;50.076;8.848;2022-07-29T02:16:30;99903.78;;;19.75;60.84
23996;BME280;12207;50.076;8.848;2022-07-29T02:19:01;99894.25;;;19.69;61.36
23996;BME280;12207;50.076;8.848;2022-07-29T02:21:30;99904.44;;;19.57;62.28
23996;BME280;12207;50.076;8.848;2022-07-29T02:24:00;99906.94;;;19.46;62.66
23996;BME280;12207;50.076;8.848;2022-07-29T02:26:28;99904.38;;;19.49;62.78
23996;BME280;12207;50.076;8.848;2022-07-29T02:28:57;99905.03;;;19.33;63.67
23996;BME280;12207;50.076;8.848;2022-07-29T02:31:28;99905.09;;;19.38;63.38
23996;BME280;12207;50.076;8.848;2022-07-29T02:33:56;99908.50;;;19.32;63.92
23996;BME280;12207;50.076;8.848;2022-07-29T02:36:24;99902.38;;;19.27;63.93
23996;BME280;12207;50.076;8.848;2022-07-29T02:38:51;99899.00;;;19.31;64.27
23996;BME280;12207;50.076;8.848;2022-07-29T02:41:46;99898.13;;;19.29;63.97
23996;BME280;12207;50.076;8.848;2022-07-29T02:44:16;99905.09;;;19.39;64.35
23996;BME280;12207;50.076;8.848;2022-07-29T02:52:31;99901.50;;;19.22;64.97
23996;BME280;12207;50.076;8.848;2022-07-29T02:57:49;99895.38;;;19.17;65.06
23996;BME280;12207;50.076;8.848;2022-07-29T03:00:18;99894.53;;;19.18;65.15
23996;BME280;12207;50.076;8.848;2022-07-29T03:02:48;99895.50;;;19.26;64.76
23996;BME280;12207;50.076;8.848;2022-07-29T03:05:19;99895.28;;;19.09;65.64
23996;BME280;12207;50.076;8.848;2022-07-29T03:07:52;99888.25;;;18.96;66.52
23996;BME280;12207;50.076;8.848;2022-07-29T03:10:21;99882.91;;;18.83;66.49
23996;BME280;12207;50.076;8.848;2022-07-29T03:12:49;99882.88;;;18.80;66.57
23996;BME280;12207;50.076;8.848;2022-07-29T03:15:16;99879.38;;;18.77;66.75
23996;BME280;12207;50.076;8.848;2022-07-29T03:17:43;99882.88;;;18.80;67.13
23996;BME280;12207;50.076;8.848;2022-07-29T03:20:11;99879.47;;;18.84;67.15
23996;BME280;12207;50.076;8.848;2022-07-29T03:22:42;99884.69;;;18.87;66.80
23996;BME280;12207;50.076;8.848;2022-07-29T03:25:14;99881.25;;;18.87;66.74
23996;BME280;12207;50.076;8.848;2022-07-29T03:27:41;99877.72;;;18.80;67.03
23996;BME280;12207;50.076;8.848;2022-07-29T03:30:09;99875.06;;;18.74;67.86
23996;BME280;12207;50.076;8.848;2022-07-29T03:32:37;99881.03;;;18.73;68.17
23996;BME280;12207;50.076;8.848;2022-07-29T03:35:04;99891.31;;;18.70;68.51
23996;BME280;12207;50.076;8.848;2022-07-29T03:37:32;99880.97;;;18.70;67.72
23996;BME280;12207;50.076;8.848;2022-07-29T03:40:01;99886.97;;;18.67;69.48
23996;BME280;12207;50.076;8.848;2022-07-29T03:42:32;99868.09;;;18.72;70.48
23996;BME280;12207;50.076;8.848;2022-07-29T03:45:03;99874.00;;;18.64;78.97
23996;BME280;12207;50.076;8.848;2022-07-29T03:47:32;99870.31;;;18.45;82.90
23996;BME280;12207;50.076;8.848;2022-07-29T03:50:05;99863.88;;;18.17;85.88
23996;BME280;12207;50.076;8.848;2022-07-29T03:52:33;99871.06;;;17.82;91.03
23996;BME280;12207;50.076;8.848;2022-07-29T03:55:02;99861.28;;;17.64;93.22
23996;BME280;12207;50.076;8.848;2022-07-29T03:57:31;99863.38;;;17.38;95.82
23996;BME280;12207;50.076;8.848;2022-07-29T03:59:58;99865.63;;;17.21;99.29
23996;BME280;12207;50.076;8.848;2022-07-29T04:02:27;99860.94;;;17.00;100.00
23996;BME280;12207;50.076;8.848;2022-07-29T04:04:54;99863.44;;;16.96;100.00
23996;BME280;12207;50.076;8.848;2022-07-29T04:07:21;99862.94;;;16.74;100.00
23996;BME280;12207;50.076;8.848;2022-07-29T04:09:48;99872.31;;;16.69;100.00
23996;BME280;12207;50.076;8.848;2022-07-29T04:12:14;99871.44;;;16.70;100.00
23996;BME280;12207;50.076;8.848;2022-07-29T04:14:41;99866.00;;;16.56;100.00
23996;BME280;12207;50.076;8.848;2022-07-29T04:17:08;99876.88;;;16.45;100.00
23996;BME280;12207;50.076;8.848;2022-07-29T04:19:35;99875.06;;;16.39;100.00
23996;BME280;12207;50.076;8.848;2022-07-29T04:22:02;99871.75;;;16.45;100.00
23996;BME280;12207;50.076;8.848;2022-07-29T04:24:28;99870.25;;;16.54;100.00
23996;BME280;12207;50.076;8.848;2022-07-29T04:26:55;99867.28;;;16.75;100.00
23996;BME280;12207;50.076;8.848;2022-07-29T04:29:22;99878.28;;;17.09;100.00
23996;BME280;12207;50.076;8.848;2022-07-29T04:31:48;99872.66;;;17.28;100.00
23996;BME280;12207;50.076;8.848;2022-07-29T04:34:15;99878.28;;;17.07;100.00
23996;BME280;12207;50.076;8.848;2022-07-29T04:36:42;99880.47;;;16.89;100.00
23996;BME280;12207;50.076;8.848;2022-07-29T04:39:09;99880.91;;;16.71;100.00
23996;BME280;12207;50.076;8.848;2022-07-29T04:41:36;99877.94;;;16.51;100.00
23996;BME280;12207;50.076;8.848;2022-07-29T04:44:03;99876.22;;;16.52;100.00
23996;BME280;12207;50.076;8.848;2022-07-29T04:46:32;99874.56;;;16.54;100.00
23996;BME280;12207;50.076;8.848;2022-07-29T04:48:58;99873.50;;;16.46;100.00
23996;BME280;12207;50.076;8.848;2022-07-29T04:51:25;99870.13;;;16.48;100.00
23996;BME280;12207;50.076;8.848;2022-07-29T04:53:52;99869.28;;;16.49;100.00
23996;BME280;12207;50.076;8.848;2022-07-29T04:56:18;99868.38;;;16.47;100.00
23996;BME280;12207;50.076;8.848;2022-07-29T04:58:45;99872.59;;;16.44;100.00
23996;BME280;12207;50.076;8.848;2022-07-29T05:01:12;99871.75;;;16.45;100.00
23996;BME280;12207;50.076;8.848;2022-07-29T05:03:39;99871.88;;;16.51;100.00
23996;BME280;12207;50.076;8.848;2022-07-29T05:06:05;99871.72;;;16.43;100.00
23996;BME280;12207;50.076;8.848;2022-07-29T05:08:32;99870.94;;;16.47;100.00
23996;BME280;12207;50.076;8.848;2022-07-29T05:10:59;99875.88;;;17.18;100.00
23996;BME280;12207;50.076;8.848;2022-07-29T05:13:25;99879.81;;;18.48;100.00
23996;BME280;12207;50.076;8.848;2022-07-29T05:15:52;99889.84;;;19.64;98.39
23996;BME280;12207;50.076;8.848;2022-07-29T05:18:19;99886.34;;;20.70;92.74
23996;BME280;12207;50.076;8.848;2022-07-29T05:20:46;99879.75;;;21.36;87.43
23996;BME280;12207;50.076;8.848;2022-07-29T05:23:12;99884.97;;;22.01;83.18
23996;BME280;12207;50.076;8.848;2022-07-29T05:25:39;99882.41;;;22.28;80.23
23996;BME280;12207;50.076;8.848;2022-07-29T05:28:06;99889.22;;;22.69;78.13
23996;BME280;12207;50.076;8.848;2022-07-29T05:30:33;99887.31;;;23.24;75.97
23996;BME280;12207;50.076;8.848;2022-07-29T05:32:59;99889.06;;;23.22;77.13
23996;BME280;12207;50.076;8.848;2022-07-29T05:35:26;99895.16;;;23.20;76.57
23996;BME280;12207;50.076;8.848;2022-07-29T05:37:53;99893.38;;;23.26;75.76
23996;BME280;12207;50.076;8.848;2022-07-29T05:40:20;99895.75;;;23.65;73.01
23996;BME280;12207;50.076;8.848;2022-07-29T05:42:47;99898.50;;;23.39;73.52
23996;BME280;12207;50.076;8.848;2022-07-29T05:45:13;99898.84;;;22.37;78.90
23996;BME280;12207;50.076;8.848;2022-07-29T05:47:40;99895.31;;;21.39;82.31
23996;BME280;12207;50.076;8.848;2022-07-29T05:50:07;99895.72;;;20.51;87.04
23996;BME280;12207;50.076;8.848;2022-07-29T05:52:35;99890.81;;;19.72;92.09
23996;BME280;12207;50.076;8.848;2022-07-29T05:55:01;99897.13;;;19.16;95.70
23996;BME280;12207;50.076;8.848;2022-07-29T05:57:30;99889.16;;;18.99;98.35
23996;BME280;12207;50.076;8.848;2022-07-29T05:59:57;99898.72;;;19.09;97.85
23996;BME280;12207;50.076;8.848;2022-07-29T06:02:24;99905.63;;;19.09;99.21
23996;BME280;12207;50.076;8.848;2022-07-29T06:04:51;99907.34;;;19.08;99.52
23996;BME280;12207;50.076;8.848;2022-07-29T06:07:18;99918.81;;;19.29;99.65
23996;BME280;12207;50.076;8.848;2022-07-29T06:09:44;99912.22;;;19.58;97.24
23996;BME280;12207;50.076;8.848;2022-07-29T06:12:11;99912.63;;;19.98;92.17
23996;BME280;12207;50.076;8.848;2022-07-29T06:14:38;99907.69;;;20.26;91.19
23996;BME280;12207;50.076;8.848;2022-07-29T06:17:05;99916.66;;;20.76;88.97
23996;BME280;12207;50.076;8.848;2022-07-29T06:19:34;99913.38;;;21.12;82.95
23996;BME280;12207;50.076;8.848;2022-07-29T06:22:01;99914.44;;;21.94;79.64
23996;BME280;12207;50.076;8.848;2022-07-29T06:24:28;99910.09;;;22.45;74.05
23996;BME280;12207;50.076;8.848;2022-07-29T06:26:55;99916.84;;;23.19;73.08
23996;BME280;12207;50.076;8.848;2022-07-29T06:29:22;99913.34;;;23.25;71.47
23996;BME280;12207;50.076;8.848;2022-07-29T06:31:49;99921.00;;;23.54;68.29
23996;BME280;12207;50.076;8.848;2022-07-29T06:34:15;99909.72;;;23.54;68.82
23996;BME280;12207;50.076;8.848;2022-07-29T06:36:42;99925.31;;;23.58;71.24
23996;BME280;12207;50.076;8.848;2022-07-29T06:39:09;99915.78;;;23.54;66.18
23996;BME280;12207;50.076;8.848;2022-07-29T06:41:36;99911.53;;;23.44;64.72
23996;BME280;12207;50.076;8.848;2022-07-29T06:44:03;99908.84;;;23.52;65.54
23996;BME280;12207;50.076;8.848;2022-07-29T06:46:31;99910.66;;;23.39;67.35
23996;BME280;12207;50.076;8.848;2022-07-29T06:48:58;99908.91;;;23.38;64.69
23996;BME280;12207;50.076;8.848;2022-07-29T06:51:25;99911.28;;;23.84;64.33
23996;BME280;12207;50.076;8.848;2022-07-29T06:53:52;99917.97;;;24.14;65.17
23996;BME280;12207;50.076;8.848;2022-07-29T06:56:19;99922.75;;;23.49;66.55
23996;BME280;12207;50.076;8.848;2022-07-29T06:58:46;99921.38;;;22.08;69.45
23996;BME280;12207;50.076;8.848;2022-07-29T07:01:13;99914.41;;;21.69;72.85
23996;BME280;12207;50.076;8.848;2022-07-29T07:03:39;99910.13;;;21.77;73.85
23996;BME280;12207;50.076;8.848;2022-07-29T07:06:06;99918.78;;;22.16;71.97
23996;BME280;12207;50.076;8.848;2022-07-29T07:08:33;99920.47;;;22.68;68.81
23996;BME280;12207;50.076;8.848;2022-07-29T07:11:00;99922.13;;;22.93;69.79
23996;BME280;12207;50.076;8.848;2022-07-29T07:13:27;99926.22;;;23.50;66.83
23996;BME280;12207;50.076;8.848;2022-07-29T07:15:54;99925.88;;;24.06;68.90
23996;BME280;12207;50.076;8.848;2022-07-29T07:18:21;99931.97;;;24.02;62.32
23996;BME280;12207;50.076;8.848;2022-07-29T07:20:47;99935.66;;;23.77;65.63
23996;BME280;12207;50.076;8.848;2022-07-29T07:23:14;99927.91;;;23.58;62.20
23996;BME280;12207;50.076;8.848;2022-07-29T07:25:41;99939.84;;;23.98;57.84
23996;BME280;12207;50.076;8.848;2022-07-29T07:28:08;99931.31;;;24.76;56.18
23996;BME280;12207;50.076;8.848;2022-07-29T07:30:35;99929.06;;;24.38;57.70
23996;BME280;12207;50.076;8.848;2022-07-29T07:33:02;99927.56;;;24.98;56.05
23996;BME280;12207;50.076;8.848;2022-07-29T07:35:28;99932.41;;;24.55;57.78
23996;BME280;12207;50.076;8.848;2022-07-29T07:37:56;99934.63;;;24.93;55.23
23996;BME280;12207;50.076;8.848;2022-07-29T07:40:23;99940.44;;;25.18;53.46
23996;BME280;12207;50.076;8.848;2022-07-29T07:42:49;99940.78;;;25.59;51.47
23996;BME280;12207;50.076;8.848;2022-07-29T07:45:16;99939.91;;;25.58;52.13
23996;BME280;12207;50.076;8.848;2022-07-29T07:47:44;99933.84;;;25.55;52.62
23996;BME280;12207;50.076;8.848;2022-07-29T07:50:11;99940.31;;;25.28;48.79
23996;BME280;12207;50.076;8.848;2022-07-29T07:52:52;99940.00;;;26.11;48.25
23996;BME280;12207;50.076;8.848;2022-07-29T07:55:21;99941.91;;;26.54;47.74
23996;BME280;12207;50.076;8.848;2022-07-29T07:57:47;99945.19;;;27.10;46.18
23996;BME280;12207;50.076;8.848;2022-07-29T08:00:15;99937.59;;;26.51;47.71
23996;BME280;12207;50.076;8.848;2022-07-29T08:02:43;99931.44;;;26.52;47.93
23996;BME280;12207;50.076;8.848;2022-07-29T08:05:11;99931.06;;;26.24;47.56
23996;BME280;12207;50.076;8.848;2022-07-29T08:07:43;99936.06;;;27.30;45.62
23996;BME280;12207;50.076;8.848;2022-07-29T08:10:10;99936.31;;;27.17;45.33
23996;BME280;12207;50.076;8.848;2022-07-29T08:12:36;99935.34;;;26.28;46.33
23996;BME280;12207;50.076;8.848;2022-07-29T08:15:03;99931.97;;;26.22;45.86
23996;BME280;12207;50.076;8.848;2022-07-29T08:17:30;99928.22;;;26.36;46.08
23996;BME280;12207;50.076;8.848;2022-07-29T08:19:57;99934.78;;;27.05;45.18
23996;BME280;12207;50.076;8.848;2022-07-29T08:22:24;99936.66;;;27.42;44.75
23996;BME280;12207;50.076;8.848;2022-07-29T08:24:51;99936.22;;;27.62;43.72
23996;BME280;12207;50.076;8.848;2022-07-29T08:27:22;99928.69;;;27.05;44.82
23996;BME280;12207;50.076;8.848;2022-07-29T08:29:49;99937.00;;;26.82;45.25
23996;BME280;12207;50.076;8.848;2022-07-29T08:32:16;99933.91;;;26.62;44.99
23996;BME280;12207;50.076;8.848;2022-07-29T08:34:43;99932.00;;;26.71;45.24
23996;BME280;12207;50.076;8.848;2022-07-29T08:37:12;99929.69;;;26.98;44.96
23996;BME280;12207;50.076;8.848;2022-07-29T08:39:39;99933.38;;;27.33;44.35
23996;BME280;12207;50.076;8.848;2022-07-29T08:42:06;99930.06;;;27.24;44.28
23996;BME280;12207;50.076;8.848;2022-07-29T08:44:33;99924.28;;;27.49;44.13
23996;BME280;12207;50.076;8.848;2022-07-29T08:47:00;99926.84;;;27.52;44.69
23996;BME280;12207;50.076;8.848;2022-07-29T08:49:27;99932.22;;;27.46;44.58
23996;BME280;12207;50.076;8.848;2022-07-29T08:51:55;99935.47;;;27.17;44.40
23996;BME280;12207;50.076;8.848;2022-07-29T08:54:23;99931.88;;;27.61;43.24
23996;BME280;12207;50.076;8.848;2022-07-29T08:56:51;99931.88;;;27.99;42.83
23996;BME280;12207;50.076;8.848;2022-07-29T08:59:22;99932.44;;;27.76;43.47
23996;BME280;12207;50.076;8.848;2022-07-29T09:01:53;99936.59;;;27.45;42.61
23996;BME280;12207;50.076;8.848;2022-07-29T09:04:21;99940.19;;;27.80;43.42
23996;BME280;12207;50.076;8.848;2022-07-29T09:06:52;99939.88;;;27.94;43.51
23996;BME280;12207;50.076;8.848;2022-07-29T09:09:20;99924.06;;;28.31;43.29
23996;BME280;12207;50.076;8.848;2022-07-29T09:11:47;99934.13;;;28.50;42.08
23996;BME280;12207;50.076;8.848;2022-07-29T09:14:15;99931.09;;;27.95;42.05
23996;BME280;12207;50.076;8.848;2022-07-29T09:16:50;99921.84;;;28.83;42.07
23996;BME280;12207;50.076;8.848;2022-07-29T09:19:29;99930.28;;;28.61;41.30
23996;BME280;12207;50.076;8.848;2022-07-29T09:21:58;99923.75;;;28.09;41.32
23996;BME280;12207;50.076;8.848;2022-07-29T09:26:53;99917.56;;;27.37;44.71
23996;BME280;12207;50.076;8.848;2022-07-29T09:29:23;99907.09;;;27.37;43.85
23996;BME280;12207;50.076;8.848;2022-07-29T09:31:51;99921.31;;;28.02;43.74
23996;BME280;12207;50.076;8.848;2022-07-29T09:34:23;99919.34;;;28.46;41.73
23996;BME280;12207;50.076;8.848;2022-07-29T09:36:52;99915.16;;;29.32;41.27
23996;BME280;12207;50.076;8.848;2022-07-29T09:42:00;99916.81;;;29.92;39.32
23996;BME280;12207;50.076;8.848;2022-07-29T09:44:34;99917.44;;;29.15;41.62
23996;BME280;12207;50.076;8.848;2022-07-29T09:47:06;99916.91;;;29.03;42.28
23996;BME280;12207;50.076;8.848;2022-07-29T09:49:50;99909.59;;;28.82;41.01
23996;BME280;12207;50.076;8.848;2022-07-29T09:52:17;99913.50;;;29.86;39.82
23996;BME280;12207;50.076;8.848;2022-07-29T09:54:44;99909.94;;;29.88;40.89
23996;BME280;12207;50.076;8.848;2022-07-29T09:57:25;99914.44;;;30.38;40.02
23996;BME280;12207;50.076;8.848;2022-07-29T10:00:02;99915.16;;;29.90;41.40
23996;BME280;12207;50.076;8.848;2022-07-29T10:02:31;99910.06;;;29.56;40.34
23996;BME280;12207;50.076;8.848;2022-07-29T10:04:59;99904.94;;;28.60;41.55
23996;BME280;12207;50.076;8.848;2022-07-29T10:07:26;99913.47;;;29.00;40.84
23996;BME280;12207;50.076;8.848;2022-07-29T10:09:54;99899.47;;;29.30;40.55
23996;BME280;12207;50.076;8.848;2022-07-29T10:12:22;99897.06;;;29.23;41.01
23996;BME280;12207;50.076;8.848;2022-07-29T10:14:50;99905.00;;;30.04;40.12
23996;BME280;12207;50.076;8.848;2022-07-29T10:17:17;99908.66;;;30.00;41.24
23996;BME280;12207;50.076;8.848;2022-07-29T10:19:45;99902.22;;;30.35;40.58
23996;BME280;12207;50.076;8.848;2022-07-29T10:22:13;99896.53;;;30.23;39.34
23996;BME280;12207;50.076;8.848;2022-07-29T10:24:40;99904.09;;;29.50;40.84
23996;BME280;12207;50.076;8.848;2022-07-29T10:27:08;99897.22;;;30.28;39.93
23996;BME280;12207;50.076;8.848;2022-07-29T10:29:35;99907.56;;;30.59;38.97
23996;BME280;12207;50.076;8.848;2022-07-29T10:32:36;99901.56;;;29.19;40.77
23996;BME280;12207;50.076;8.848;2022-07-29T10:44:08;99893.25;;;29.61;41.14
23996;BME280;12207;50.076;8.848;2022-07-29T10:46:36;99893.28;;;29.60;42.15
23996;BME280;12207;50.076;8.848;2022-07-29T10:49:14;99885.38;;;29.60;41.81
23996;BME280;12207;50.076;8.848;2022-07-29T10:52:07;99892.25;;;30.18;40.76
23996;BME280;12207;50.076;8.848;2022-07-29T10:59:48;99882.69;;;30.66;39.80
23996;BME280;12207;50.076;8.848;2022-07-29T11:07:33;99882.59;;;30.69;39.87
23996;BME280;12207;50.076;8.848;2022-07-29T11:15:09;99879.28;;;31.11;39.54
23996;BME280;12207;50.076;8.848;2022-07-29T11:20:46;99866.25;;;30.09;40.96
23996;BME280;12207;50.076;8.848;2022-07-29T11:23:33;99861.00;;;30.59;41.10
23996;BME280;12207;50.076;8.848;2022-07-29T11:26:14;99870.59;;;31.09;39.37
23996;BME280;12207;50.076;8.848;2022-07-29T11:29:28;99871.91;;;30.97;40.20
23996;BME280;12207;50.076;8.848;2022-07-29T11:32:09;99863.28;;;29.93;42.23
23996;BME280;12207;50.076;8.848;2022-07-29T11:34:37;99861.94;;;30.07;42.05
23996;BME280;12207;50.076;8.848;2022-07-29T11:39:39;99865.28;;;30.62;41.12
23996;BME280;12207;50.076;8.848;2022-07-29T11:45:02;99858.41;;;30.58;40.38
23996;BME280;12207;50.076;8.848;2022-07-29T11:47:34;99861.44;;;30.22;41.02
23996;BME280;12207;50.076;8.848;2022-07-29T11:50:08;99861.09;;;29.80;41.55
23996;BME280;12207;50.076;8.848;2022-07-29T11:52:36;99858.22;;;30.39;41.37
23996;BME280;12207;50.076;8.848;2022-07-29T11:55:12;99862.16;;;30.27;41.30
23996;BME280;12207;50.076;8.848;2022-07-29T11:57:49;99854.94;;;31.50;40.00
23996;BME280;12207;50.076;8.848;2022-07-29T12:00:34;99851.38;;;31.05;38.91
23996;BME280;12207;50.076;8.848;2022-07-29T12:03:03;99852.22;;;31.29;38.80
23996;BME280;12207;50.076;8.848;2022-07-29T12:05:44;99844.69;;;31.85;37.90
23996;BME280;12207;50.076;8.848;2022-07-29T12:08:14;99842.53;;;31.52;38.20
23996;BME280;12207;50.076;8.848;2022-07-29T12:10:43;99833.47;;;32.02;39.17
23996;BME280;12207;50.076;8.848;2022-07-29T12:13:11;99827.91;;;32.28;37.60
23996;BME280;12207;50.076;8.848;2022-07-29T12:15:38;99829.22;;;32.38;37.23
23996;BME280;12207;50.076;8.848;2022-07-29T12:18:16;99828.50;;;32.14;37.53
23996;BME280;12207;50.076;8.848;2022-07-29T12:20:44;99823.81;;;31.80;37.40
23996;BME280;12207;50.076;8.848;2022-07-29T12:23:11;99834.50;;;32.38;37.68
23996;BME280;12207;50.076;8.848;2022-07-29T12:25:40;99834.00;;;32.70;37.28
23996;BME280;12207;50.076;8.848;2022-07-29T12:28:10;99824.69;;;31.59;37.69
23996;BME280;12207;50.076;8.848;2022-07-29T12:30:55;99824.28;;;31.02;38.58
23996;BME280;12207;50.076;8.848;2022-07-29T12:33:27;99819.81;;;31.70;37.99
23996;BME280;12207;50.076;8.848;2022-07-29T12:35:57;99816.03;;;32.18;37.63
23996;BME280;12207;50.076;8.848;2022-07-29T12:38:24;99821.16;;;32.41;36.72
23996;BME280;12207;50.076;8.848;2022-07-29T12:40:52;99811.56;;;31.99;36.42
23996;BME280;12207;50.076;8.848;2022-07-29T12:43:21;99809.13;;;31.73;37.91
23996;BME280;12207;50.076;8.848;2022-07-29T12:45:55;99802.81;;;31.57;38.21
23996;BME280;12207;50.076;8.848;2022-07-29T12:48:42;99799.69;;;32.10;36.35
23996;BME280;12207;50.076;8.848;2022-07-29T12:51:10;99791.97;;;32.44;36.46
23996;BME280;12207;50.076;8.848;2022-07-29T12:53:39;99787.59;;;32.64;35.66
23996;BME280;12207;50.076;8.848;2022-07-29T12:56:06;99796.28;;;32.47;35.76
23996;BME280;12207;50.076;8.848;2022-07-29T12:58:42;99792.81;;;32.45;36.71
23996;BME280;12207;50.076;8.848;2022-07-29T13:01:18;99790.13;;;32.26;36.52
23996;BME280;12207;50.076;8.848;2022-07-29T13:03:50;99786.13;;;31.97;36.52
23996;BME280;12207;50.076;8.848;2022-07-29T13:06:37;99780.56;;;32.23;35.78
23996;BME280;12207;50.076;8.848;2022-07-29T13:09:12;99786.09;;;31.36;37.41
23996;BME280;12207;50.076;8.848;2022-07-29T13:11:41;99776.09;;;31.85;37.13
23996;BME280;12207;50.076;8.848;2022-07-29T13:14:29;99778.13;;;31.78;36.77
23996;BME280;12207;50.076;8.848;2022-07-29T13:17:12;99771.59;;;31.66;37.46
23996;BME280;12207;50.076;8.848;2022-07-29T13:19:43;99776.84;;;31.24;38.68
23996;BME280;12207;50.076;8.848;2022-07-29T13:22:12;99779.69;;;31.41;37.74
23996;BME280;12207;50.076;8.848;2022-07-29T13:24:54;99786.63;;;30.53;39.73
23996;BME280;12207;50.076;8.848;2022-07-29T13:27:26;99781.81;;;30.15;40.39
23996;BME280;12207;50.076;8.848;2022-07-29T13:29:54;99776.34;;;30.69;39.43
23996;BME280;12207;50.076;8.848;2022-07-29T13:32:23;99773.03;;;31.73;38.60
23996;BME280;12207;50.076;8.848;2022-07-29T13:34:50;99768.25;;;32.04;37.24
23996;BME280;12207;50.076;8.848;2022-07-29T13:37:17;99768.16;;;32.65;36.79
23996;BME280;12207;50.076;8.848;2022-07-29T13:39:45;99769.00;;;32.84;36.65
23996;BME280;12207;50.076;8.848;2022-07-29T13:42:11;99767.34;;;32.82;36.90
23996;BME280;12207;50.076;8.848;2022-07-29T13:44:40;99771.19;;;33.12;35.12
23996;BME280;12207;50.076;8.848;2022-07-29T13:47:07;99760.97;;;33.41;35.00
23996;BME280;12207;50.076;8.848;2022-07-29T13:49:34;99766.41;;;33.02;35.67
23996;BME280;12207;50.076;8.848;2022-07-29T13:52:01;99756.94;;;32.79;35.27
23996;BME280;12207;50.076;8.848;2022-07-29T13:54:28;99752.91;;;32.89;36.01
23996;BME280;12207;50.076;8.848;2022-07-29T13:56:55;99754.44;;;32.57;35.50
23996;BME280;12207;50.076;8.848;2022-07-29T13:59:22;99754.88;;;32.27;36.89
23996;BME280;12207;50.076;8.848;2022-07-29T14:01:50;99754.69;;;31.92;36.63
23996;BME280;12207;50.076;8.848;2022-07-29T14:04:17;99759.34;;;32.06;36.69
23996;BME280;12207;50.076;8.848;2022-07-29T14:06:44;99757.03;;;31.78;36.15